sensor_id;sensor_type;location;lat;lon;timestamp;pressure;altitude;pressure_sealevel;temperature;humidity
3150;BME280;32503;47.748;8.960;2023-03-07T00:00:36;95845.91;;;6.30;48.60
3150;BME280;32503;47.748;8.960;2023-03-07T00:03:03;95848.28;;;6.35;48.46
3150;BME280;32503;47.748;8.960;2023-03-07T00:05:30;95846.41;;;6.36;47.99
3150;BME280;32503;47.748;8.960;2023-03-07T00:07:58;95844.47;;;6.36;48.50
3150;BME280;32503;47.748;8.960;2023-03-07T00:10:25;95839.81;;;6.33;47.99
3150;BME280;32503;47.748;8.960;2023-03-07T00:12:52;95842.91;;;6.35;47.97
3150;BME280;32503;47.748;8.960;2023-03-07T00:15:19;95835.84;;;6.27;48.25
3150;BME280;32503;47.748;8.960;2023-03-07T00:17:48;95840.06;;;6.28;48.34
3150;BME280;32503;47.748;8.960;2023-03-07T00:20:15;95837.41;;;6.28;48.03
3150;BME280;32503;47.748;8.960;2023-03-07T00:22:43;95839.66;;;6.26;47.64
3150;BME280;32503;47.748;8.960;2023-03-07T00:25:12;95841.16;;;6.23;47.93
3150;BME280;32503;47.748;8.960;2023-03-07T00:27:40;95811.66;;;6.07;47.92
3150;BME280;32503;47.748;8.960;2023-03-07T00:30:09;95818.66;;;6.12;48.22
3150;BME280;32503;47.748;8.960;2023-03-07T00:32:37;95842.25;;;6.22;47.91
3150;BME280;32503;47.748;8.960;2023-03-07T00:35:06;95851.00;;;6.19;47.62
3150;BME280;32503;47.748;8.960;2023-03-07T00:37:33;95847.56;;;6.19;47.59
3150;BME280;32503;47.748;8.960;2023-03-07T00:40:01;95843.34;;;6.18;48.21
3150;BME280;32503;47.748;8.960;2023-03-07T00:42:30;95838.75;;;6.18;47.85
3150;BME280;32503;47.748;8.960;2023-03-07T00:44:57;95837.44;;;6.12;48.38
3150;BME280;32503;47.748;8.960;2023-03-07T00:47:24;95836.81;;;6.19;47.75
3150;BME280;32503;47.748;8.960;2023-03-07T00:49:51;95826.00;;;6.15;47.96
3150;BME280;32503;47.748;8.960;2023-03-07T00:52:19;95831.03;;;6.17;48.43
3150;BME280;32503;47.748;8.960;2023-03-07T00:54:46;95828.00;;;6.18;47.61
3150;BME280;32503;47.748;8.960;2023-03-07T00:57:14;95817.88;;;6.12;48.50
3150;BME280;32503;47.748;8.960;2023-03-07T00:59:40;95822.56;;;6.15;48.36
3150;BME280;32503;47.748;8.960;2023-03-07T01:02:10;95819.88;;;6.15;48.09
3150;BME280;32503;47.748;8.960;2023-03-07T01:04:37;95817.13;;;6.11;48.31
3150;BME280;32503;47.748;8.960;2023-03-07T01:07:04;95808.84;;;6.00;48.66
3150;BME280;32503;47.748;8.960;2023-03-07T01:09:33;95813.22;;;6.08;48.01
3150;BME280;32503;47.748;8.960;2023-03-07T01:12:00;95820.41;;;6.04;48.33
3150;BME280;32503;47.748;8.960;2023-03-07T01:14:31;95823.38;;;5.99;48.22
3150;BME280;32503;47.748;8.960;2023-03-07T01:16:58;95822.47;;;5.95;48.59
3150;BME280;32503;47.748;8.960;2023-03-07T01:21:54;95828.72;;;5.99;49.03
3150;BME280;32503;47.748;8.960;2023-03-07T01:24:21;95828.31;;;5.97;49.07
3150;BME280;32503;47.748;8.960;2023-03-07T01:26:50;95834.78;;;5.96;49.15
3150;BME280;32503;47.748;8.960;2023-03-07T01:29:17;95835.66;;;6.00;49.39
3150;BME280;32503;47.748;8.960;2023-03-07T01:31:44;95835.66;;;6.00;49.09
3150;BME280;32503;47.748;8.960;2023-03-07T01:34:11;95837.13;;;5.98;49.00
3150;BME280;32503;47.748;8.960;2023-03-07T01:36:38;95830.53;;;5.95;48.95
3150;BME280;32503;47.748;8.960;2023-03-07T01:39:07;95829.72;;;5.95;49.15
3150;BME280;32503;47.748;8.960;2023-03-07T01:41:37;95828.19;;;5.94;49.10
3150;BME280;32503;47.748;8.960;2023-03-07T01:44:14;95826.63;;;5.93;49.28
3150;BME280;32503;47.748;8.960;2023-03-07T01:46:45;95827.84;;;5.95;49.24
3150;BME280;32503;47.748;8.960;2023-03-07T01:49:20;95821.38;;;5.96;49.27
3150;BME280;32503;47.748;8.960;2023-03-07T01:51:52;95796.47;;;5.80;49.22
3150;BME280;32503;47.748;8.960;2023-03-07T01:54:22;95812.88;;;5.94;49.04
3150;BME280;32503;47.748;8.960;2023-03-07T01:56:50;95815.13;;;5.92;48.97
3150;BME280;32503;47.748;8.960;2023-03-07T01:59:26;95796.19;;;5.85;49.42
3150;BME280;32503;47.748;8.960;2023-03-07T02:01:56;95779.09;;;5.74;49.28
3150;BME280;32503;47.748;8.960;2023-03-07T02:04:30;95802.75;;;5.87;49.06
3150;BME280;32503;47.748;8.960;2023-03-07T02:06:59;95792.03;;;5.87;49.24
3150;BME280;32503;47.748;8.960;2023-03-07T02:09:30;95786.31;;;5.89;49.91
3150;BME280;32503;47.748;8.960;2023-03-07T02:11:58;95784.84;;;5.92;49.24
3150;BME280;32503;47.748;8.960;2023-03-07T02:14:27;95771.25;;;5.65;49.37
3150;BME280;32503;47.748;8.960;2023-03-07T02:16:55;95789.34;;;5.87;48.80
3150;BME280;32503;47.748;8.960;2023-03-07T02:19:41;95785.47;;;5.85;49.81
3150;BME280;32503;47.748;8.960;2023-03-07T02:22:12;95797.38;;;5.87;49.15
3150;BME280;32503;47.748;8.960;2023-03-07T02:24:47;95768.72;;;5.72;49.75
3150;BME280;32503;47.748;8.960;2023-03-07T02:27:18;95776.03;;;5.75;49.60
3150;BME280;32503;47.748;8.960;2023-03-07T02:29:45;95788.84;;;5.82;49.59
3150;BME280;32503;47.748;8.960;2023-03-07T02:32:13;95778.09;;;5.82;49.89
3150;BME280;32503;47.748;8.960;2023-03-07T02:34:40;95783.47;;;5.82;49.50
3150;BME280;32503;47.748;8.960;2023-03-07T02:37:11;95784.16;;;5.79;49.27
3150;BME280;32503;47.748;8.960;2023-03-07T02:39:42;95779.94;;;5.78;49.08
3150;BME280;32503;47.748;8.960;2023-03-07T02:42:13;95776.41;;;5.74;49.43
3150;BME280;32503;47.748;8.960;2023-03-07T02:44:45;95777.09;;;5.70;49.07
3150;BME280;32503;47.748;8.960;2023-03-07T02:47:12;95785.50;;;5.69;49.44
3150;BME280;32503;47.748;8.960;2023-03-07T02:49:39;95787.41;;;5.68;49.55
3150;BME280;32503;47.748;8.960;2023-03-07T02:52:06;95785.75;;;5.64;49.73
3150;BME280;32503;47.748;8.960;2023-03-07T02:54:33;95782.31;;;5.63;49.44
3150;BME280;32503;47.748;8.960;2023-03-07T02:57:00;95778.31;;;5.57;49.33
3150;BME280;32503;47.748;8.960;2023-03-07T02:59:27;95767.25;;;5.59;50.04
3150;BME280;32503;47.748;8.960;2023-03-07T03:01:56;95777.56;;;5.57;49.96
3150;BME280;32503;47.748;8.960;2023-03-07T03:04:23;95765.91;;;5.49;49.99
3150;BME280;32503;47.748;8.960;2023-03-07T03:06:50;95769.84;;;5.55;49.55
3150;BME280;32503;47.748;8.960;2023-03-07T03:09:17;95766.75;;;5.53;50.00
3150;BME280;32503;47.748;8.960;2023-03-07T03:11:44;95767.59;;;5.57;50.33
3150;BME280;32503;47.748;8.960;2023-03-07T03:14:12;95761.13;;;5.58;50.18
3150;BME280;32503;47.748;8.960;2023-03-07T03:16:39;95713.94;;;5.22;49.94
3150;BME280;32503;47.748;8.960;2023-03-07T03:19:08;95764.41;;;5.51;50.03
3150;BME280;32503;47.748;8.960;2023-03-07T03:21:35;95767.53;;;5.54;50.21
3150;BME280;32503;47.748;8.960;2023-03-07T03:24:04;95728.31;;;5.29;50.61
3150;BME280;32503;47.748;8.960;2023-03-07T03:26:32;95760.69;;;5.56;50.22
3150;BME280;32503;47.748;8.960;2023-03-07T03:28:59;95764.50;;;5.55;50.09
3150;BME280;32503;47.748;8.960;2023-03-07T03:31:26;95761.03;;;5.55;50.42
3150;BME280;32503;47.748;8.960;2023-03-07T03:33:55;95754.56;;;5.40;50.14
3150;BME280;32503;47.748;8.960;2023-03-07T03:36:25;95728.81;;;5.19;50.57
3150;BME280;32503;47.748;8.960;2023-03-07T03:38:54;95742.06;;;5.28;50.81
3150;BME280;32503;47.748;8.960;2023-03-07T03:41:22;95761.13;;;5.42;50.75
3150;BME280;32503;47.748;8.960;2023-03-07T03:43:50;95744.91;;;5.35;50.71
3150;BME280;32503;47.748;8.960;2023-03-07T03:46:17;95750.06;;;5.44;50.31
3150;BME280;32503;47.748;8.960;2023-03-07T03:48:50;95735.63;;;5.32;50.39
3150;BME280;32503;47.748;8.960;2023-03-07T03:51:18;95745.06;;;5.42;50.65
3150;BME280;32503;47.748;8.960;2023-03-07T03:53:47;95736.66;;;5.44;50.05
3150;BME280;32503;47.748;8.960;2023-03-07T03:56:16;95725.72;;;5.33;50.39
3150;BME280;32503;47.748;8.960;2023-03-07T03:58:46;95739.63;;;5.39;50.70
3150;BME280;32503;47.748;8.960;2023-03-07T04:01:14;95738.81;;;5.38;50.75
3150;BME280;32503;47.748;8.960;2023-03-07T04:03:44;95738.75;;;5.35;50.92
3150;BME280;32503;47.748;8.960;2023-03-07T04:06:14;95738.47;;;5.40;50.66
3150;BME280;32503;47.748;8.960;2023-03-07T04:08:44;95735.44;;;5.41;50.75
3150;BME280;32503;47.748;8.960;2023-03-07T04:11:13;95734.34;;;5.42;50.71
3150;BME280;32503;47.748;8.960;2023-03-07T04:13:40;95736.25;;;5.26;51.26
3150;BME280;32503;47.748;8.960;2023-03-07T04:16:07;95728.31;;;5.29;50.93
3150;BME280;32503;47.748;8.960;2023-03-07T04:18:35;95731.41;;;5.31;51.08
3150;BME280;32503;47.748;8.960;2023-03-07T04:21:03;95706.88;;;5.13;51.13
3150;BME280;32503;47.748;8.960;2023-03-07T04:23:31;95721.72;;;5.27;51.34
3150;BME280;32503;47.748;8.960;2023-03-07T04:26:00;95724.75;;;5.25;51.34
3150;BME280;32503;47.748;8.960;2023-03-07T04:28:31;95724.66;;;5.22;51.27
3150;BME280;32503;47.748;8.960;2023-03-07T04:31:08;95725.44;;;5.22;51.70
3150;BME280;32503;47.748;8.960;2023-03-07T04:33:35;95718.63;;;5.25;51.70
3150;BME280;32503;47.748;8.960;2023-03-07T04:36:02;95721.47;;;5.16;51.70
3150;BME280;32503;47.748;8.960;2023-03-07T04:38:30;95723.81;;;5.18;51.82
3150;BME280;32503;47.748;8.960;2023-03-07T04:40:57;95716.97;;;5.20;51.59
3150;BME280;32503;47.748;8.960;2023-03-07T04:43:24;95716.19;;;5.20;51.89
3150;BME280;32503;47.748;8.960;2023-03-07T04:45:53;95720.78;;;5.19;51.65
3150;BME280;32503;47.748;8.960;2023-03-07T04:48:20;95713.19;;;5.21;51.32
3150;BME280;32503;47.748;8.960;2023-03-07T04:50:48;95719.56;;;5.17;51.31
3150;BME280;32503;47.748;8.960;2023-03-07T04:53:16;95711.09;;;5.15;51.68
3150;BME280;32503;47.748;8.960;2023-03-07T04:55:43;95702.97;;;5.11;51.58
3150;BME280;32503;47.748;8.960;2023-03-07T04:58:11;95704.09;;;5.10;51.75
3150;BME280;32503;47.748;8.960;2023-03-07T05:00:39;95704.56;;;5.12;51.56
3150;BME280;32503;47.748;8.960;2023-03-07T05:03:09;95671.88;;;4.90;52.17
3150;BME280;32503;47.748;8.960;2023-03-07T05:05:36;95696.25;;;5.17;51.55
3150;BME280;32503;47.748;8.960;2023-03-07T05:08:04;95679.81;;;5.03;51.51
3150;BME280;32503;47.748;8.960;2023-03-07T05:10:32;95690.91;;;5.17;51.00
3150;BME280;32503;47.748;8.960;2023-03-07T05:12:59;95685.09;;;5.15;51.04
3150;BME280;32503;47.748;8.960;2023-03-07T05:15:27;95686.22;;;5.14;51.25
3150;BME280;32503;47.748;8.960;2023-03-07T05:17:54;95677.50;;;5.17;50.95
3150;BME280;32503;47.748;8.960;2023-03-07T05:20:23;95665.06;;;5.09;50.94
3150;BME280;32503;47.748;8.960;2023-03-07T05:22:50;95683.72;;;5.21;51.16
3150;BME280;32503;47.748;8.960;2023-03-07T05:25:17;95652.25;;;5.02;51.04
3150;BME280;32503;47.748;8.960;2023-03-07T05:27:44;95685.09;;;5.15;50.78
3150;BME280;32503;47.748;8.960;2023-03-07T05:30:12;95681.03;;;5.21;51.07
3150;BME280;32503;47.748;8.960;2023-03-07T05:32:39;95668.50;;;5.09;51.04
3150;BME280;32503;47.748;8.960;2023-03-07T05:35:08;95685.25;;;5.22;50.39
3150;BME280;32503;47.748;8.960;2023-03-07T05:37:38;95687.16;;;5.22;50.91
3150;BME280;32503;47.748;8.960;2023-03-07T05:40:06;95689.50;;;5.23;50.59
3150;BME280;32503;47.748;8.960;2023-03-07T05:42:36;95677.84;;;5.16;50.43
3150;BME280;32503;47.748;8.960;2023-03-07T05:45:04;95686.81;;;5.23;50.58
3150;BME280;32503;47.748;8.960;2023-03-07T05:47:31;95687.16;;;5.22;51.08
3150;BME280;32503;47.748;8.960;2023-03-07T05:49:59;95684.22;;;5.27;50.62
3150;BME280;32503;47.748;8.960;2023-03-07T05:52:26;95681.88;;;5.25;50.05
3150;BME280;32503;47.748;8.960;2023-03-07T05:54:55;95681.25;;;5.32;50.18
3150;BME280;32503;47.748;8.960;2023-03-07T05:57:22;95680.16;;;5.33;50.02
3150;BME280;32503;47.748;8.960;2023-03-07T05:59:49;95675.13;;;5.31;49.93
3150;BME280;32503;47.748;8.960;2023-03-07T06:02:16;95664.16;;;5.37;49.84
3150;BME280;32503;47.748;8.960;2023-03-07T06:04:44;95675.91;;;5.32;50.31
3150;BME280;32503;47.748;8.960;2023-03-07T06:07:11;95670.53;;;5.32;49.82
3150;BME280;32503;47.748;8.960;2023-03-07T06:09:39;95673.31;;;5.36;49.91
3150;BME280;32503;47.748;8.960;2023-03-07T06:12:10;95677.56;;;5.37;49.97
3150;BME280;32503;47.748;8.960;2023-03-07T06:14:37;95674.88;;;5.37;49.69
3150;BME280;32503;47.748;8.960;2023-03-07T06:17:04;95669.25;;;5.42;49.64
3150;BME280;32503;47.748;8.960;2023-03-07T06:19:32;95669.31;;;5.45;49.65
3150;BME280;32503;47.748;8.960;2023-03-07T06:21:59;95656.19;;;5.40;49.40
3150;BME280;32503;47.748;8.960;2023-03-07T06:24:27;95662.91;;;5.50;49.96
3150;BME280;32503;47.748;8.960;2023-03-07T06:26:54;95662.63;;;5.55;50.39
3150;BME280;32503;47.748;8.960;2023-03-07T06:29:22;95668.81;;;5.59;50.22
3150;BME280;32503;47.748;8.960;2023-03-07T06:31:49;95664.59;;;5.58;49.83
3150;BME280;32503;47.748;8.960;2023-03-07T06:34:16;95658.97;;;5.63;49.75
3150;BME280;32503;47.748;8.960;2023-03-07T06:36:43;95662.06;;;5.65;49.14
3150;BME280;32503;47.748;8.960;2023-03-07T06:39:10;95659.81;;;5.67;48.76
3150;BME280;32503;47.748;8.960;2023-03-07T06:41:38;95661.38;;;5.68;48.96
3150;BME280;32503;47.748;8.960;2023-03-07T06:44:05;95650.94;;;5.63;48.79
3150;BME280;32503;47.748;8.960;2023-03-07T06:46:34;95654.53;;;5.71;48.81
3150;BME280;32503;47.748;8.960;2023-03-07T06:49:01;95646.06;;;5.69;48.52
3150;BME280;32503;47.748;8.960;2023-03-07T06:51:28;95649.31;;;5.78;48.89
3150;BME280;32503;47.748;8.960;2023-03-07T06:53:55;95653.28;;;5.84;48.84
3150;BME280;32503;47.748;8.960;2023-03-07T06:56:24;95647.56;;;5.86;48.07
3150;BME280;32503;47.748;8.960;2023-03-07T06:58:51;95658.78;;;5.92;48.50
3150;BME280;32503;47.748;8.960;2023-03-07T07:01:20;95650.13;;;5.98;48.76
3150;BME280;32503;47.748;8.960;2023-03-07T07:03:48;95649.00;;;5.99;48.25
3150;BME280;32503;47.748;8.960;2023-03-07T07:06:16;95644.16;;;5.89;47.90
3150;BME280;32503;47.748;8.960;2023-03-07T07:08:43;95653.00;;;5.89;47.53
3150;BME280;32503;47.748;8.960;2023-03-07T07:11:10;95641.81;;;5.87;47.71
3150;BME280;32503;47.748;8.960;2023-03-07T07:13:37;95649.06;;;6.03;48.04
3150;BME280;32503;47.748;8.960;2023-03-07T07:16:05;95641.28;;;5.98;47.61
3150;BME280;32503;47.748;8.960;2023-03-07T07:18:33;95648.44;;;6.10;47.59
3150;BME280;32503;47.748;8.960;2023-03-07T07:21:02;95653.16;;;6.16;47.26
3150;BME280;32503;47.748;8.960;2023-03-07T07:23:30;95652.66;;;6.11;46.70
3150;BME280;32503;47.748;8.960;2023-03-07T07:25:57;95652.44;;;6.19;47.36
3150;BME280;32503;47.748;8.960;2023-03-07T07:28:24;95643.38;;;6.28;46.99
3150;BME280;32503;47.748;8.960;2023-03-07T07:30:51;95648.19;;;6.38;46.51
3150;BME280;32503;47.748;8.960;2023-03-07T07:33:18;95604.22;;;6.23;46.72
3150;BME280;32503;47.748;8.960;2023-03-07T07:35:46;95641.56;;;6.55;46.37
3150;BME280;32503;47.748;8.960;2023-03-07T07:38:14;95651.59;;;6.58;46.81
3150;BME280;32503;47.748;8.960;2023-03-07T07:40:41;95642.00;;;6.57;46.32
3150;BME280;32503;47.748;8.960;2023-03-07T07:43:13;95637.16;;;6.66;45.77
3150;BME280;32503;47.748;8.960;2023-03-07T07:45:40;95639.66;;;6.78;46.25
3150;BME280;32503;47.748;8.960;2023-03-07T07:48:07;95616.13;;;6.72;45.81
3150;BME280;32503;47.748;8.960;2023-03-07T07:50:34;95628.25;;;6.85;44.99
3150;BME280;32503;47.748;8.960;2023-03-07T07:53:01;95630.69;;;6.94;44.32
3150;BME280;32503;47.748;8.960;2023-03-07T07:55:30;95630.16;;;6.84;43.56
3150;BME280;32503;47.748;8.960;2023-03-07T07:57:57;95603.69;;;6.83;44.34
3150;BME280;32503;47.748;8.960;2023-03-07T08:00:25;95630.06;;;7.04;44.02
3150;BME280;32503;47.748;8.960;2023-03-07T08:02:52;95632.84;;;6.84;43.24
3150;BME280;32503;47.748;8.960;2023-03-07T08:05:20;95636.13;;;6.97;43.47
3150;BME280;32503;47.748;8.960;2023-03-07T08:07:47;95640.09;;;7.07;43.54
3150;BME280;32503;47.748;8.960;2023-03-07T08:10:16;95627.94;;;7.13;43.02
3150;BME280;32503;47.748;8.960;2023-03-07T08:12:48;95633.34;;;7.17;42.91
3150;BME280;32503;47.748;8.960;2023-03-07T08:15:17;95635.72;;;7.22;42.95
3150;BME280;32503;47.748;8.960;2023-03-07T08:17:46;95628.13;;;7.28;42.80
3150;BME280;32503;47.748;8.960;2023-03-07T08:20:14;95606.78;;;7.12;42.06
3150;BME280;32503;47.748;8.960;2023-03-07T08:22:41;95628.13;;;7.28;41.96
3150;BME280;32503;47.748;8.960;2023-03-07T08:25:16;95626.75;;;7.41;41.92
3150;BME280;32503;47.748;8.960;2023-03-07T08:27:46;95632.03;;;7.34;41.32
3150;BME280;32503;47.748;8.960;2023-03-07T08:30:18;95620.56;;;7.37;40.52
3150;BME280;32503;47.748;8.960;2023-03-07T08:32:48;95616.84;;;7.45;40.65
3150;BME280;32503;47.748;8.960;2023-03-07T08:35:16;95618.50;;;7.57;40.83
3150;BME280;32503;47.748;8.960;2023-03-07T08:37:43;95617.88;;;7.67;39.78
3150;BME280;32503;47.748;8.960;2023-03-07T08:40:12;95618.38;;;7.46;40.51
3150;BME280;32503;47.748;8.960;2023-03-07T08:42:39;95623.03;;;7.49;41.27
3150;BME280;32503;47.748;8.960;2023-03-07T08:45:09;95625.31;;;7.47;40.01
3150;BME280;32503;47.748;8.960;2023-03-07T08:47:36;95615.69;;;7.46;40.21
3150;BME280;32503;47.748;8.960;2023-03-07T08:50:04;95610.78;;;7.52;40.12
3150;BME280;32503;47.748;8.960;2023-03-07T08:52:31;95621.06;;;7.46;40.43
3150;BME280;32503;47.748;8.960;2023-03-07T08:54:58;95633.78;;;7.49;40.04
3150;BME280;32503;47.748;8.960;2023-03-07T08:57:26;95619.13;;;7.43;40.18
3150;BME280;32503;47.748;8.960;2023-03-07T08:59:53;95618.69;;;7.41;41.01
3150;BME280;32503;47.748;8.960;2023-03-07T09:02:21;95614.91;;;7.46;40.39
3150;BME280;32503;47.748;8.960;2023-03-07T09:04:48;95619.13;;;7.43;40.67
3150;BME280;32503;47.748;8.960;2023-03-07T09:07:15;95599.25;;;7.51;39.78
3150;BME280;32503;47.748;8.960;2023-03-07T09:09:43;95602.09;;;7.66;40.60
3150;BME280;32503;47.748;8.960;2023-03-07T09:12:10;95599.50;;;7.73;40.42
3150;BME280;32503;47.748;8.960;2023-03-07T09:14:38;95595.03;;;7.84;40.54
3150;BME280;32503;47.748;8.960;2023-03-07T09:17:05;95597.56;;;8.04;39.90
3150;BME280;32503;47.748;8.960;2023-03-07T09:19:33;95597.00;;;8.25;39.23
3150;BME280;32503;47.748;8.960;2023-03-07T09:22:01;95584.78;;;8.34;39.18
3150;BME280;32503;47.748;8.960;2023-03-07T09:24:28;95585.31;;;8.10;38.91
3150;BME280;32503;47.748;8.960;2023-03-07T09:26:55;95593.91;;;8.23;39.25
3150;BME280;32503;47.748;8.960;2023-03-07T09:29:22;95596.72;;;8.33;39.11
3150;BME280;32503;47.748;8.960;2023-03-07T09:31:50;95590.94;;;8.31;38.71
3150;BME280;32503;47.748;8.960;2023-03-07T09:34:17;95592.38;;;8.25;38.72
3150;BME280;32503;47.748;8.960;2023-03-07T09:36:45;95573.94;;;8.27;38.88
3150;BME280;32503;47.748;8.960;2023-03-07T09:39:12;95573.50;;;8.22;38.99
3150;BME280;32503;47.748;8.960;2023-03-07T09:41:58;95569.66;;;8.19;38.47
3150;BME280;32503;47.748;8.960;2023-03-07T09:44:49;95572.31;;;8.15;38.35
3150;BME280;32503;47.748;8.960;2023-03-07T09:47:47;95570.88;;;8.29;38.72
3150;BME280;32503;47.748;8.960;2023-03-07T09:50:26;95563.28;;;8.38;38.48
3150;BME280;32503;47.748;8.960;2023-03-07T09:53:02;95564.06;;;8.39;38.01
3150;BME280;32503;47.748;8.960;2023-03-07T09:55:30;95548.00;;;8.46;38.26
3150;BME280;32503;47.748;8.960;2023-03-07T09:58:01;95536.56;;;8.60;37.90
3150;BME280;32503;47.748;8.960;2023-03-07T10:00:36;95543.59;;;8.79;37.43
3150;BME280;32503;47.748;8.960;2023-03-07T10:03:18;95549.16;;;9.00;37.25
3150;BME280;32503;47.748;8.960;2023-03-07T10:05:49;95539.56;;;9.06;36.54
3150;BME280;32503;47.748;8.960;2023-03-07T10:08:20;95544.59;;;9.11;37.21
3150;BME280;32503;47.748;8.960;2023-03-07T10:10:55;95538.28;;;9.56;36.74
3150;BME280;32503;47.748;8.960;2023-03-07T10:13:43;95536.47;;;9.89;36.04
3150;BME280;32503;47.748;8.960;2023-03-07T10:16:21;95490.97;;;9.91;35.18
3150;BME280;32503;47.748;8.960;2023-03-07T10:19:04;95523.06;;;10.39;34.98
3150;BME280;32503;47.748;8.960;2023-03-07T10:21:41;95485.25;;;10.39;33.82
3150;BME280;32503;47.748;8.960;2023-03-07T10:24:35;95509.56;;;10.68;34.42
3150;BME280;32503;47.748;8.960;2023-03-07T10:27:06;95504.88;;;11.00;34.38
3150;BME280;32503;47.748;8.960;2023-03-07T10:29:43;95487.47;;;11.12;33.91
3150;BME280;32503;47.748;8.960;2023-03-07T10:32:22;95493.97;;;11.22;33.75
3150;BME280;32503;47.748;8.960;2023-03-07T10:34:56;95479.97;;;11.52;32.99
3150;BME280;32503;47.748;8.960;2023-03-07T10:37:40;95473.25;;;11.75;32.87
3150;BME280;32503;47.748;8.960;2023-03-07T10:40:22;95475.13;;;11.89;33.42
3150;BME280;32503;47.748;8.960;2023-03-07T10:42:50;95458.13;;;11.88;32.90
3150;BME280;32503;47.748;8.960;2023-03-07T10:45:18;95467.41;;;11.84;32.70
3150;BME280;32503;47.748;8.960;2023-03-07T10:47:45;95469.16;;;11.45;32.98
3150;BME280;32503;47.748;8.960;2023-03-07T10:50:26;95460.72;;;11.29;33.35
3150;BME280;32503;47.748;8.960;2023-03-07T10:52:57;95450.78;;;11.00;33.67
3150;BME280;32503;47.748;8.960;2023-03-07T10:55:37;95456.94;;;11.12;33.32
3150;BME280;32503;47.748;8.960;2023-03-07T10:58:21;95451.44;;;11.33;33.12
3150;BME280;32503;47.748;8.960;2023-03-07T11:01:13;95458.38;;;11.34;33.71
3150;BME280;32503;47.748;8.960;2023-03-07T11:03:46;95461.53;;;11.22;33.23
3150;BME280;32503;47.748;8.960;2023-03-07T11:06:31;95466.19;;;11.18;32.90
3150;BME280;32503;47.748;8.960;2023-03-07T11:09:15;95442.25;;;11.09;33.10
3150;BME280;32503;47.748;8.960;2023-03-07T11:11:51;95442.88;;;11.46;32.50
3150;BME280;32503;47.748;8.960;2023-03-07T11:14:18;95423.50;;;11.54;32.94
3150;BME280;32503;47.748;8.960;2023-03-07T11:16:53;95441.63;;;11.68;32.20
3150;BME280;32503;47.748;8.960;2023-03-07T11:19:37;95439.53;;;11.94;32.60
3150;BME280;32503;47.748;8.960;2023-03-07T11:22:18;95435.31;;;12.38;31.71
3150;BME280;32503;47.748;8.960;2023-03-07T11:24:54;95434.56;;;12.38;31.37
3150;BME280;32503;47.748;8.960;2023-03-07T11:27:32;95431.25;;;12.61;31.67
3150;BME280;32503;47.748;8.960;2023-03-07T11:30:24;95418.94;;;12.90;31.28
3150;BME280;32503;47.748;8.960;2023-03-07T11:33:12;95421.59;;;12.98;30.45
3150;BME280;32503;47.748;8.960;2023-03-07T11:35:57;95406.94;;;12.88;30.58
3150;BME280;32503;47.748;8.960;2023-03-07T11:38:48;95417.97;;;13.08;30.79
3150;BME280;32503;47.748;8.960;2023-03-07T11:41:24;95432.28;;;13.12;31.06
3150;BME280;32503;47.748;8.960;2023-03-07T11:44:15;95429.91;;;13.14;30.74
3150;BME280;32503;47.748;8.960;2023-03-07T11:49:45;95406.66;;;12.79;30.57
3150;BME280;32503;47.748;8.960;2023-03-07T11:52:47;95408.78;;;12.64;31.33
3150;BME280;32503;47.748;8.960;2023-03-07T11:55:26;95413.31;;;12.74;31.09
3150;BME280;32503;47.748;8.960;2023-03-07T11:58:14;95407.91;;;12.74;30.44
3150;BME280;32503;47.748;8.960;2023-03-07T12:01:04;95406.47;;;12.62;31.43
3150;BME280;32503;47.748;8.960;2023-03-07T12:07:36;95394.88;;;12.58;30.95
3150;BME280;32503;47.748;8.960;2023-03-07T12:10:20;95394.06;;;12.61;31.37
3150;BME280;32503;47.748;8.960;2023-03-07T12:13:04;95391.66;;;12.70;30.92
3150;BME280;32503;47.748;8.960;2023-03-07T12:15:39;95391.56;;;12.81;31.00
3150;BME280;32503;47.748;8.960;2023-03-07T12:18:38;95376.88;;;12.75;30.76
3150;BME280;32503;47.748;8.960;2023-03-07T12:21:21;95372.22;;;12.76;31.37
3150;BME280;32503;47.748;8.960;2023-03-07T12:23:55;95367.41;;;12.90;31.28
3150;BME280;32503;47.748;8.960;2023-03-07T12:26:30;95357.28;;;12.95;31.38
3150;BME280;32503;47.748;8.960;2023-03-07T12:29:02;95351.41;;;13.00;30.72
3150;BME280;32503;47.748;8.960;2023-03-07T12:31:36;95353.22;;;13.10;30.66
3150;BME280;32503;47.748;8.960;2023-03-07T12:34:12;95353.19;;;13.14;30.28
3150;BME280;32503;47.748;8.960;2023-03-07T12:36:49;95343.50;;;13.13;31.22
3150;BME280;32503;47.748;8.960;2023-03-07T12:39:23;95346.94;;;13.17;30.75
3150;BME280;32503;47.748;8.960;2023-03-07T12:41:58;95340.03;;;13.12;30.16
3150;BME280;32503;47.748;8.960;2023-03-07T12:44:37;95315.41;;;12.99;30.35
3150;BME280;32503;47.748;8.960;2023-03-07T12:47:14;95334.50;;;13.19;30.79
3150;BME280;32503;47.748;8.960;2023-03-07T12:49:52;95338.66;;;13.27;30.95
3150;BME280;32503;47.748;8.960;2023-03-07T12:52:33;95338.91;;;13.40;30.98
3150;BME280;32503;47.748;8.960;2023-03-07T12:55:13;95327.34;;;13.36;30.49
3150;BME280;32503;47.748;8.960;2023-03-07T12:57:46;95326.94;;;13.38;30.48
3150;BME280;32503;47.748;8.960;2023-03-07T13:00:18;95325.78;;;13.35;30.43
3150;BME280;32503;47.748;8.960;2023-03-07T13:02:57;95329.94;;;13.13;30.67
3150;BME280;32503;47.748;8.960;2023-03-07T13:05:27;95320.78;;;13.03;30.81
3150;BME280;32503;47.748;8.960;2023-03-07T13:07:55;95301.72;;;12.76;31.00
3150;BME280;32503;47.748;8.960;2023-03-07T13:10:24;95327.38;;;12.71;31.17
3150;BME280;32503;47.748;8.960;2023-03-07T13:12:51;95314.53;;;12.75;31.25
3150;BME280;32503;47.748;8.960;2023-03-07T13:18:32;95310.91;;;12.85;31.33
3150;BME280;32503;47.748;8.960;2023-03-07T13:21:14;95306.94;;;12.94;31.47
3150;BME280;32503;47.748;8.960;2023-03-07T13:24:31;95305.47;;;13.16;31.29
3150;BME280;32503;47.748;8.960;2023-03-07T13:27:00;95311.22;;;13.22;31.11
3150;BME280;32503;47.748;8.960;2023-03-07T13:30:04;95297.22;;;13.23;31.51
3150;BME280;32503;47.748;8.960;2023-03-07T13:32:57;95295.06;;;13.11;31.26
3150;BME280;32503;47.748;8.960;2023-03-07T13:35:54;95282.03;;;13.02;31.77
3150;BME280;32503;47.748;8.960;2023-03-07T13:38:32;95283.06;;;13.12;31.79
3150;BME280;32503;47.748;8.960;2023-03-07T13:41:00;95286.56;;;13.09;31.60
3150;BME280;32503;47.748;8.960;2023-03-07T13:44:01;95282.66;;;13.14;31.48
3150;BME280;32503;47.748;8.960;2023-03-07T13:46:50;95290.69;;;12.94;31.73
3150;BME280;32503;47.748;8.960;2023-03-07T13:49:35;95299.34;;;12.81;32.27
3150;BME280;32503;47.748;8.960;2023-03-07T13:52:37;95301.84;;;12.65;32.19
3150;BME280;32503;47.748;8.960;2023-03-07T13:55:26;95310.28;;;12.74;32.60